sensor_id;sensor_type;location;lat;lon;timestamp;P1;durP1;ratioP1;P2;durP2;ratioP2
32216;SDS011;67098;51.140;4.088;2023-06-22T00:01:16;8.88;;;5.00;;
32216;SDS011;67098;51.140;4.088;2023-06-22T00:03:42;9.00;;;4.97;;
32216;SDS011;67098;51.140;4.088;2023-06-22T00:06:08;8.15;;;5.38;;
32216;SDS011;67098;51.140;4.088;2023-06-22T00:08:33;9.25;;;5.05;;
32216;SDS011;67098;51.140;4.088;2023-06-22T00:10:59;9.43;;;6.07;;
32216;SDS011;67098;51.140;4.088;2023-06-22T00:13:25;9.68;;;5.25;;
32216;SDS011;67098;51.140;4.088;2023-06-22T00:15:51;7.35;;;5.00;;
32216;SDS011;67098;51.140;4.088;2023-06-22T00:18:16;8.13;;;4.38;;
32216;SDS011;67098;51.140;4.088;2023-06-22T00:20:43;7.55;;;4.25;;
32216;SDS011;67098;51.140;4.088;2023-06-22T00:23:10;10.98;;;5.28;;
32216;SDS011;67098;51.140;4.088;2023-06-22T00:25:39;5.28;;;4.40;;
32216;SDS011;67098;51.140;4.088;2023-06-22T00:28:06;8.48;;;4.72;;
32216;SDS011;67098;51.140;4.088;2023-06-22T00:30:33;8.88;;;5.68;;
32216;SDS011;67098;51.140;4.088;2023-06-22T00:32:59;9.48;;;5.50;;
32216;SDS011;67098;51.140;4.088;2023-06-22T00:35:26;8.98;;;5.70;;
32216;SDS011;67098;51.140;4.088;2023-06-22T00:37:57;8.20;;;5.32;;
32216;SDS011;67098;51.140;4.088;2023-06-22T00:40:28;9.80;;;5.50;;
32216;SDS011;67098;51.140;4.088;2023-06-22T00:42:54;9.02;;;5.40;;
32216;SDS011;67098;51.140;4.088;2023-06-22T00:45:21;9.45;;;5.50;;
32216;SDS011;67098;51.140;4.088;2023-06-22T00:47:52;10.07;;;6.82;;
32216;SDS011;67098;51.140;4.088;2023-06-22T00:50:22;10.23;;;5.45;;
32216;SDS011;67098;51.140;4.088;2023-06-22T00:52:53;8.48;;;5.40;;
32216;SDS011;67098;51.140;4.088;2023-06-22T00:55:23;9.45;;;5.20;;
32216;SDS011;67098;51.140;4.088;2023-06-22T00:57:51;8.40;;;4.80;;
32216;SDS011;67098;51.140;4.088;2023-06-22T01:00:21;7.88;;;5.00;;
32216;SDS011;67098;51.140;4.088;2023-06-22T01:02:49;10.98;;;5.75;;
32216;SDS011;67098;51.140;4.088;2023-06-22T01:05:16;7.45;;;5.25;;
32216;SDS011;67098;51.140;4.088;2023-06-22T01:16:03;11.13;;;5.65;;
32216;SDS011;67098;51.140;4.088;2023-06-22T01:18:34;10.55;;;5.00;;
32216;SDS011;67098;51.140;4.088;2023-06-22T01:21:02;9.63;;;5.50;;
32216;SDS011;67098;51.140;4.088;2023-06-22T01:26:22;8.00;;;5.30;;
32216;SDS011;67098;51.140;4.088;2023-06-22T01:28:57;8.43;;;4.95;;
32216;SDS011;67098;51.140;4.088;2023-06-22T01:31:26;8.63;;;4.57;;
32216;SDS011;67098;51.140;4.088;2023-06-22T01:34:04;7.68;;;5.28;;
32216;SDS011;67098;51.140;4.088;2023-06-22T01:36:31;7.07;;;5.35;;
32216;SDS011;67098;51.140;4.088;2023-06-22T01:38:58;7.50;;;5.38;;
32216;SDS011;67098;51.140;4.088;2023-06-22T01:41:27;6.90;;;5.30;;
32216;SDS011;67098;51.140;4.088;2023-06-22T01:46:21;9.27;;;5.30;;
32216;SDS011;67098;51.140;4.088;2023-06-22T01:48:47;10.23;;;5.55;;
32216;SDS011;67098;51.140;4.088;2023-06-22T01:51:14;6.95;;;5.10;;
32216;SDS011;67098;51.140;4.088;2023-06-22T01:53:41;9.60;;;5.68;;
32216;SDS011;67098;51.140;4.088;2023-06-22T01:56:07;9.02;;;5.43;;
32216;SDS011;67098;51.140;4.088;2023-06-22T01:58:33;10.50;;;5.40;;
32216;SDS011;67098;51.140;4.088;2023-06-22T02:01:09;8.50;;;5.38;;
32216;SDS011;67098;51.140;4.088;2023-06-22T02:03:38;9.32;;;5.55;;
32216;SDS011;67098;51.140;4.088;2023-06-22T02:06:20;8.77;;;5.13;;
32216;SDS011;67098;51.140;4.088;2023-06-22T02:08:51;10.05;;;5.68;;
32216;SDS011;67098;51.140;4.088;2023-06-22T02:11:22;12.23;;;6.40;;
32216;SDS011;67098;51.140;4.088;2023-06-22T02:13:50;7.25;;;5.75;;
32216;SDS011;67098;51.140;4.088;2023-06-22T02:16:16;9.45;;;5.18;;
32216;SDS011;67098;51.140;4.088;2023-06-22T02:18:47;7.65;;;5.65;;
32216;SDS011;67098;51.140;4.088;2023-06-22T02:21:16;7.93;;;6.07;;
32216;SDS011;67098;51.140;4.088;2023-06-22T02:23:42;12.15;;;5.88;;
32216;SDS011;67098;51.140;4.088;2023-06-22T02:26:08;8.70;;;5.55;;
32216;SDS011;67098;51.140;4.088;2023-06-22T02:28:34;8.20;;;6.00;;
32216;SDS011;67098;51.140;4.088;2023-06-22T02:30:59;7.72;;;5.13;;
32216;SDS011;67098;51.140;4.088;2023-06-22T02:33:25;10.00;;;6.15;;
32216;SDS011;67098;51.140;4.088;2023-06-22T02:35:51;10.30;;;6.10;;
32216;SDS011;67098;51.140;4.088;2023-06-22T02:38:16;8.75;;;5.93;;
32216;SDS011;67098;51.140;4.088;2023-06-22T02:40:42;10.55;;;6.55;;
32216;SDS011;67098;51.140;4.088;2023-06-22T02:43:08;7.78;;;5.50;;
32216;SDS011;67098;51.140;4.088;2023-06-22T02:45:34;6.75;;;5.15;;
32216;SDS011;67098;51.140;4.088;2023-06-22T02:47:59;9.95;;;5.65;;
32216;SDS011;67098;51.140;4.088;2023-06-22T02:50:25;9.95;;;6.03;;
32216;SDS011;67098;51.140;4.088;2023-06-22T02:52:51;8.57;;;5.70;;
32216;SDS011;67098;51.140;4.088;2023-06-22T02:55:17;8.88;;;5.78;;
32216;SDS011;67098;51.140;4.088;2023-06-22T02:57:43;9.75;;;6.07;;
32216;SDS011;67098;51.140;4.088;2023-06-22T03:00:09;10.65;;;6.65;;
32216;SDS011;67098;51.140;4.088;2023-06-22T03:02:46;7.70;;;5.60;;
32216;SDS011;67098;51.140;4.088;2023-06-22T03:05:13;11.90;;;6.43;;
32216;SDS011;67098;51.140;4.088;2023-06-22T03:07:40;9.07;;;5.90;;
32216;SDS011;67098;51.140;4.088;2023-06-22T03:10:07;8.40;;;5.80;;
32216;SDS011;67098;51.140;4.088;2023-06-22T03:12:36;8.65;;;5.40;;
32216;SDS011;67098;51.140;4.088;2023-06-22T03:15:05;9.23;;;5.68;;
32216;SDS011;67098;51.140;4.088;2023-06-22T03:17:32;10.23;;;5.93;;
32216;SDS011;67098;51.140;4.088;2023-06-22T03:19:58;7.65;;;5.80;;
32216;SDS011;67098;51.140;4.088;2023-06-22T03:22:24;13.50;;;5.95;;
32216;SDS011;67098;51.140;4.088;2023-06-22T03:24:50;7.88;;;5.93;;
32216;SDS011;67098;51.140;4.088;2023-06-22T03:27:16;15.75;;;6.32;;
32216;SDS011;67098;51.140;4.088;2023-06-22T03:29:41;8.70;;;5.97;;
32216;SDS011;67098;51.140;4.088;2023-06-22T03:32:08;8.05;;;5.72;;
32216;SDS011;67098;51.140;4.088;2023-06-22T03:34:34;9.98;;;6.03;;
32216;SDS011;67098;51.140;4.088;2023-06-22T03:37:01;9.75;;;5.82;;
32216;SDS011;67098;51.140;4.088;2023-06-22T03:39:28;10.35;;;6.13;;
32216;SDS011;67098;51.140;4.088;2023-06-22T03:41:54;9.88;;;6.43;;
32216;SDS011;67098;51.140;4.088;2023-06-22T03:44:19;8.82;;;5.57;;
32216;SDS011;67098;51.140;4.088;2023-06-22T03:46:45;8.55;;;5.68;;
32216;SDS011;67098;51.140;4.088;2023-06-22T03:49:11;9.82;;;5.78;;
32216;SDS011;67098;51.140;4.088;2023-06-22T03:51:37;11.02;;;6.32;;
32216;SDS011;67098;51.140;4.088;2023-06-22T03:54:02;8.38;;;6.07;;
32216;SDS011;67098;51.140;4.088;2023-06-22T03:56:28;9.35;;;5.80;;
32216;SDS011;67098;51.140;4.088;2023-06-22T03:58:54;8.48;;;5.65;;
32216;SDS011;67098;51.140;4.088;2023-06-22T04:01:20;8.95;;;6.03;;
32216;SDS011;67098;51.140;4.088;2023-06-22T04:03:45;8.50;;;5.50;;
32216;SDS011;67098;51.140;4.088;2023-06-22T04:06:13;9.75;;;5.65;;
32216;SDS011;67098;51.140;4.088;2023-06-22T04:08:39;9.93;;;6.43;;
32216;SDS011;67098;51.140;4.088;2023-06-22T04:11:05;9.90;;;6.50;;
32216;SDS011;67098;51.140;4.088;2023-06-22T04:13:31;8.50;;;5.47;;
32216;SDS011;67098;51.140;4.088;2023-06-22T04:15:57;9.60;;;6.18;;
32216;SDS011;67098;51.140;4.088;2023-06-22T04:18:23;9.60;;;5.60;;
32216;SDS011;67098;51.140;4.088;2023-06-22T04:20:49;11.43;;;5.68;;
32216;SDS011;67098;51.140;4.088;2023-06-22T04:23:14;8.93;;;6.10;;
32216;SDS011;67098;51.140;4.088;2023-06-22T04:25:40;11.15;;;6.60;;
32216;SDS011;67098;51.140;4.088;2023-06-22T04:28:06;12.13;;;5.78;;
32216;SDS011;67098;51.140;4.088;2023-06-22T04:30:37;12.40;;;5.95;;
32216;SDS011;67098;51.140;4.088;2023-06-22T04:33:11;11.25;;;5.68;;
32216;SDS011;67098;51.140;4.088;2023-06-22T04:35:38;8.75;;;5.60;;
32216;SDS011;67098;51.140;4.088;2023-06-22T04:38:06;12.10;;;6.47;;
32216;SDS011;67098;51.140;4.088;2023-06-22T04:40:32;8.02;;;5.65;;
32216;SDS011;67098;51.140;4.088;2023-06-22T04:42:58;9.05;;;5.93;;
32216;SDS011;67098;51.140;4.088;2023-06-22T04:45:27;12.60;;;6.75;;
32216;SDS011;67098;51.140;4.088;2023-06-22T04:47:54;9.50;;;6.65;;
32216;SDS011;67098;51.140;4.088;2023-06-22T04:50:20;8.77;;;5.97;;
32216;SDS011;67098;51.140;4.088;2023-06-22T04:52:47;12.07;;;6.60;;
32216;SDS011;67098;51.140;4.088;2023-06-22T04:55:13;11.90;;;7.88;;
32216;SDS011;67098;51.140;4.088;2023-06-22T04:57:46;13.52;;;8.13;;
32216;SDS011;67098;51.140;4.088;2023-06-22T05:00:17;10.93;;;8.05;;
32216;SDS011;67098;51.140;4.088;2023-06-22T05:02:47;15.98;;;8.52;;
32216;SDS011;67098;51.140;4.088;2023-06-22T05:05:14;15.18;;;8.27;;
32216;SDS011;67098;51.140;4.088;2023-06-22T05:07:44;15.27;;;9.05;;
32216;SDS011;67098;51.140;4.088;2023-06-22T05:10:13;14.75;;;9.00;;
32216;SDS011;67098;51.140;4.088;2023-06-22T05:12:40;16.75;;;8.80;;
32216;SDS011;67098;51.140;4.088;2023-06-22T05:15:07;13.20;;;8.85;;
32216;SDS011;67098;51.140;4.088;2023-06-22T05:17:33;19.50;;;9.27;;
32216;SDS011;67098;51.140;4.088;2023-06-22T05:20:00;18.63;;;10.60;;
32216;SDS011;67098;51.140;4.088;2023-06-22T05:22:26;15.98;;;8.82;;
32216;SDS011;67098;51.140;4.088;2023-06-22T05:24:52;15.18;;;9.18;;
32216;SDS011;67098;51.140;4.088;2023-06-22T05:27:17;18.40;;;10.02;;
32216;SDS011;67098;51.140;4.088;2023-06-22T05:29:43;15.73;;;8.90;;
32216;SDS011;67098;51.140;4.088;2023-06-22T05:32:09;15.25;;;9.25;;
32216;SDS011;67098;51.140;4.088;2023-06-22T05:34:35;17.08;;;9.05;;
32216;SDS011;67098;51.140;4.088;2023-06-22T05:37:01;17.40;;;8.68;;
32216;SDS011;67098;51.140;4.088;2023-06-22T05:39:27;14.48;;;9.38;;
32216;SDS011;67098;51.140;4.088;2023-06-22T05:41:53;15.40;;;9.57;;
32216;SDS011;67098;51.140;4.088;2023-06-22T05:44:18;15.70;;;9.55;;
32216;SDS011;67098;51.140;4.088;2023-06-22T05:46:44;16.42;;;9.85;;
32216;SDS011;67098;51.140;4.088;2023-06-22T05:49:12;15.75;;;9.32;;
32216;SDS011;67098;51.140;4.088;2023-06-22T05:51:38;18.23;;;10.02;;
32216;SDS011;67098;51.140;4.088;2023-06-22T05:54:04;16.50;;;10.43;;
32216;SDS011;67098;51.140;4.088;2023-06-22T05:56:30;17.83;;;10.50;;
32216;SDS011;67098;51.140;4.088;2023-06-22T05:58:56;15.60;;;10.85;;
32216;SDS011;67098;51.140;4.088;2023-06-22T06:01:22;16.20;;;9.15;;
32216;SDS011;67098;51.140;4.088;2023-06-22T06:03:47;14.10;;;8.82;;
32216;SDS011;67098;51.140;4.088;2023-06-22T06:06:15;16.50;;;8.68;;
32216;SDS011;67098;51.140;4.088;2023-06-22T06:08:41;12.93;;;8.20;;
32216;SDS011;67098;51.140;4.088;2023-06-22T06:11:07;15.75;;;9.95;;
32216;SDS011;67098;51.140;4.088;2023-06-22T06:13:33;14.95;;;8.20;;
32216;SDS011;67098;51.140;4.088;2023-06-22T06:15:59;13.20;;;9.23;;
32216;SDS011;67098;51.140;4.088;2023-06-22T06:18:24;14.80;;;8.70;;
32216;SDS011;67098;51.140;4.088;2023-06-22T06:20:50;17.60;;;10.07;;
32216;SDS011;67098;51.140;4.088;2023-06-22T06:23:16;20.90;;;11.93;;
32216;SDS011;67098;51.140;4.088;2023-06-22T06:25:42;21.23;;;13.35;;
32216;SDS011;67098;51.140;4.088;2023-06-22T06:28:07;21.67;;;12.18;;
32216;SDS011;67098;51.140;4.088;2023-06-22T06:30:33;16.15;;;10.70;;
32216;SDS011;67098;51.140;4.088;2023-06-22T06:33:00;20.65;;;11.23;;
32216;SDS011;67098;51.140;4.088;2023-06-22T06:35:25;22.63;;;13.70;;
32216;SDS011;67098;51.140;4.088;2023-06-22T06:37:51;22.05;;;13.75;;
32216;SDS011;67098;51.140;4.088;2023-06-22T06:40:17;27.92;;;14.82;;
32216;SDS011;67098;51.140;4.088;2023-06-22T06:42:44;22.63;;;14.60;;
32216;SDS011;67098;51.140;4.088;2023-06-22T06:45:12;26.05;;;15.38;;
32216;SDS011;67098;51.140;4.088;2023-06-22T06:47:41;22.98;;;14.15;;
32216;SDS011;67098;51.140;4.088;2023-06-22T06:50:06;22.38;;;13.73;;
32216;SDS011;67098;51.140;4.088;2023-06-22T06:52:33;29.00;;;15.57;;
32216;SDS011;67098;51.140;4.088;2023-06-22T06:54:59;27.52;;;15.88;;
32216;SDS011;67098;51.140;4.088;2023-06-22T06:57:25;18.52;;;13.93;;
32216;SDS011;67098;51.140;4.088;2023-06-22T06:59:54;17.33;;;12.90;;
32216;SDS011;67098;51.140;4.088;2023-06-22T07:02:21;25.17;;;17.13;;
32216;SDS011;67098;51.140;4.088;2023-06-22T07:04:47;20.25;;;14.55;;
32216;SDS011;67098;51.140;4.088;2023-06-22T07:07:13;19.25;;;14.13;;
32216;SDS011;67098;51.140;4.088;2023-06-22T07:09:39;23.75;;;16.02;;
32216;SDS011;67098;51.140;4.088;2023-06-22T07:12:06;25.27;;;16.48;;
32216;SDS011;67098;51.140;4.088;2023-06-22T07:14:32;28.20;;;17.60;;
32216;SDS011;67098;51.140;4.088;2023-06-22T07:16:58;25.20;;;16.83;;
32216;SDS011;67098;51.140;4.088;2023-06-22T07:19:24;25.73;;;18.67;;
32216;SDS011;67098;51.140;4.088;2023-06-22T07:21:51;26.63;;;17.67;;
32216;SDS011;67098;51.140;4.088;2023-06-22T07:24:17;27.38;;;18.70;;
32216;SDS011;67098;51.140;4.088;2023-06-22T07:26:45;28.05;;;19.10;;
32216;SDS011;67098;51.140;4.088;2023-06-22T07:29:11;32.10;;;19.25;;
32216;SDS011;67098;51.140;4.088;2023-06-22T07:31:37;29.48;;;18.58;;
32216;SDS011;67098;51.140;4.088;2023-06-22T07:34:05;29.52;;;17.63;;
32216;SDS011;67098;51.140;4.088;2023-06-22T07:36:30;26.00;;;17.08;;
32216;SDS011;67098;51.140;4.088;2023-06-22T07:38:56;30.92;;;18.63;;
32216;SDS011;67098;51.140;4.088;2023-06-22T07:41:22;25.95;;;16.60;;
32216;SDS011;67098;51.140;4.088;2023-06-22T07:43:48;33.13;;;19.30;;
32216;SDS011;67098;51.140;4.088;2023-06-22T07:46:13;28.30;;;19.52;;
32216;SDS011;67098;51.140;4.088;2023-06-22T07:48:40;31.10;;;17.30;;
32216;SDS011;67098;51.140;4.088;2023-06-22T07:51:07;26.00;;;16.30;;
32216;SDS011;67098;51.140;4.088;2023-06-22T07:53:32;28.08;;;18.00;;
32216;SDS011;67098;51.140;4.088;2023-06-22T07:55:58;30.50;;;18.83;;
32216;SDS011;67098;51.140;4.088;2023-06-22T07:58:24;27.10;;;18.80;;
32216;SDS011;67098;51.140;4.088;2023-06-22T08:00:50;32.15;;;18.23;;
32216;SDS011;67098;51.140;4.088;2023-06-22T08:03:16;26.73;;;18.40;;
32216;SDS011;67098;51.140;4.088;2023-06-22T08:05:41;32.47;;;18.08;;
32216;SDS011;67098;51.140;4.088;2023-06-22T08:08:07;27.75;;;18.88;;
32216;SDS011;67098;51.140;4.088;2023-06-22T08:10:33;31.05;;;18.98;;
32216;SDS011;67098;51.140;4.088;2023-06-22T08:12:59;29.58;;;18.90;;
32216;SDS011;67098;51.140;4.088;2023-06-22T08:15:26;28.20;;;16.15;;
32216;SDS011;67098;51.140;4.088;2023-06-22T08:17:51;23.88;;;17.90;;
32216;SDS011;67098;51.140;4.088;2023-06-22T08:20:17;24.58;;;16.33;;
32216;SDS011;67098;51.140;4.088;2023-06-22T08:22:43;21.63;;;15.75;;
32216;SDS011;67098;51.140;4.088;2023-06-22T08:25:09;25.65;;;16.33;;
32216;SDS011;67098;51.140;4.088;2023-06-22T08:27:36;26.40;;;15.55;;
32216;SDS011;67098;51.140;4.088;2023-06-22T08:30:02;22.98;;;16.25;;
32216;SDS011;67098;51.140;4.088;2023-06-22T08:32:28;21.10;;;15.20;;
32216;SDS011;67098;51.140;4.088;2023-06-22T08:34:55;20.45;;;14.02;;
32216;SDS011;67098;51.140;4.088;2023-06-22T08:37:21;18.27;;;13.80;;
32216;SDS011;67098;51.140;4.088;2023-06-22T08:39:50;21.60;;;13.45;;
32216;SDS011;67098;51.140;4.088;2023-06-22T08:42:16;23.90;;;14.05;;
32216;SDS011;67098;51.140;4.088;2023-06-22T08:44:41;20.13;;;14.25;;
32216;SDS011;67098;51.140;4.088;2023-06-22T08:47:07;18.15;;;14.02;;
32216;SDS011;67098;51.140;4.088;2023-06-22T08:49:33;20.83;;;14.45;;
32216;SDS011;67098;51.140;4.088;2023-06-22T08:51:59;22.33;;;15.25;;
32216;SDS011;67098;51.140;4.088;2023-06-22T08:54:24;19.17;;;14.35;;
32216;SDS011;67098;51.140;4.088;2023-06-22T08:56:50;21.00;;;14.68;;
32216;SDS011;67098;51.140;4.088;2023-06-22T08:59:16;23.10;;;15.20;;
32216;SDS011;67098;51.140;4.088;2023-06-22T09:01:42;34.00;;;16.02;;
32216;SDS011;67098;51.140;4.088;2023-06-22T09:04:10;23.27;;;14.45;;
32216;SDS011;67098;51.140;4.088;2023-06-22T09:06:37;26.65;;;15.90;;
32216;SDS011;67098;51.140;4.088;2023-06-22T09:09:10;24.00;;;15.68;;
32216;SDS011;67098;51.140;4.088;2023-06-22T09:11:37;26.65;;;16.30;;
32216;SDS011;67098;51.140;4.088;2023-06-22T09:14:02;20.08;;;16.58;;
32216;SDS011;67098;51.140;4.088;2023-06-22T09:16:29;21.20;;;15.55;;
32216;SDS011;67098;51.140;4.088;2023-06-22T09:18:55;22.70;;;15.38;;
32216;SDS011;67098;51.140;4.088;2023-06-22T09:21:21;20.38;;;15.63;;
32216;SDS011;67098;51.140;4.088;2023-06-22T09:23:47;23.45;;;15.60;;
32216;SDS011;67098;51.140;4.088;2023-06-22T09:26:16;22.20;;;15.98;;
32216;SDS011;67098;51.140;4.088;2023-06-22T09:28:43;22.15;;;17.02;;
32216;SDS011;67098;51.140;4.088;2023-06-22T09:31:08;23.33;;;14.90;;
32216;SDS011;67098;51.140;4.088;2023-06-22T09:33:35;18.90;;;13.45;;
32216;SDS011;67098;51.140;4.088;2023-06-22T09:36:01;18.38;;;12.20;;
32216;SDS011;67098;51.140;4.088;2023-06-22T09:38:27;21.05;;;14.57;;
32216;SDS011;67098;51.140;4.088;2023-06-22T09:40:53;25.27;;;16.88;;
32216;SDS011;67098;51.140;4.088;2023-06-22T09:43:18;18.45;;;13.30;;
32216;SDS011;67098;51.140;4.088;2023-06-22T09:45:44;16.30;;;11.95;;
32216;SDS011;67098;51.140;4.088;2023-06-22T09:48:10;18.40;;;11.55;;
32216;SDS011;67098;51.140;4.088;2023-06-22T09:50:35;18.83;;;11.80;;
32216;SDS011;67098;51.140;4.088;2023-06-22T09:53:02;18.13;;;12.75;;
32216;SDS011;67098;51.140;4.088;2023-06-22T09:55:28;16.85;;;12.00;;
32216;SDS011;67098;51.140;4.088;2023-06-22T09:57:54;19.23;;;14.15;;
32216;SDS011;67098;51.140;4.088;2023-06-22T10:00:20;21.23;;;13.45;;
32216;SDS011;67098;51.140;4.088;2023-06-22T10:02:47;21.95;;;14.23;;
32216;SDS011;67098;51.140;4.088;2023-06-22T10:05:13;17.88;;;13.63;;
32216;SDS011;67098;51.140;4.088;2023-06-22T10:07:39;15.23;;;11.13;;
32216;SDS011;67098;51.140;4.088;2023-06-22T10:10:08;17.30;;;13.30;;
32216;SDS011;67098;51.140;4.088;2023-06-22T10:12:35;18.35;;;13.05;;
32216;SDS011;67098;51.140;4.088;2023-06-22T10:15:00;18.30;;;12.88;;
32216;SDS011;67098;51.140;4.088;2023-06-22T10:17:26;21.63;;;12.27;;
32216;SDS011;67098;51.140;4.088;2023-06-22T10:19:52;16.42;;;11.05;;
32216;SDS011;67098;51.140;4.088;2023-06-22T10:22:18;14.00;;;11.02;;
32216;SDS011;67098;51.140;4.088;2023-06-22T10:24:44;20.60;;;14.57;;
32216;SDS011;67098;51.140;4.088;2023-06-22T10:27:11;20.95;;;12.70;;
32216;SDS011;67098;51.140;4.088;2023-06-22T10:29:37;17.38;;;11.52;;
32216;SDS011;67098;51.140;4.088;2023-06-22T10:32:03;19.95;;;12.75;;
32216;SDS011;67098;51.140;4.088;2023-06-22T10:34:29;17.65;;;12.05;;
32216;SDS011;67098;51.140;4.088;2023-06-22T10:36:54;17.10;;;12.25;;
32216;SDS011;67098;51.140;4.088;2023-06-22T10:39:20;17.45;;;13.10;;
32216;SDS011;67098;51.140;4.088;2023-06-22T10:41:46;16.90;;;12.65;;
32216;SDS011;67098;51.140;4.088;2023-06-22T10:44:12;21.65;;;14.27;;
32216;SDS011;67098;51.140;4.088;2023-06-22T10:46:38;21.92;;;13.38;;
32216;SDS011;67098;51.140;4.088;2023-06-22T10:49:04;20.35;;;13.25;;
32216;SDS011;67098;51.140;4.088;2023-06-22T10:51:30;19.95;;;12.30;;
32216;SDS011;67098;51.140;4.088;2023-06-22T10:53:57;23.10;;;12.40;;
32216;SDS011;67098;51.140;4.088;2023-06-22T10:56:23;17.05;;;12.18;;
32216;SDS011;67098;51.140;4.088;2023-06-22T10:58:49;21.83;;;13.00;;
32216;SDS011;67098;51.140;4.088;2023-06-22T11:01:15;21.08;;;12.55;;
32216;SDS011;67098;51.140;4.088;2023-06-22T11:03:40;19.58;;;13.07;;
32216;SDS011;67098;51.140;4.088;2023-06-22T11:06:06;19.30;;;12.40;;
32216;SDS011;67098;51.140;4.088;2023-06-22T11:08:32;14.63;;;11.45;;
32216;SDS011;67098;51.140;4.088;2023-06-22T11:10:58;21.25;;;13.18;;
32216;SDS011;67098;51.140;4.088;2023-06-22T11:13:23;20.42;;;13.27;;
32216;SDS011;67098;51.140;4.088;2023-06-22T11:15:50;22.33;;;13.27;;
32216;SDS011;67098;51.140;4.088;2023-06-22T11:18:15;25.35;;;13.68;;
32216;SDS011;67098;51.140;4.088;2023-06-22T11:20:41;24.02;;;13.90;;
32216;SDS011;67098;51.140;4.088;2023-06-22T11:23:07;21.40;;;13.77;;
32216;SDS011;67098;51.140;4.088;2023-06-22T11:25:33;23.50;;;14.27;;
32216;SDS011;67098;51.140;4.088;2023-06-22T11:28:03;22.30;;;13.90;;
32216;SDS011;67098;51.140;4.088;2023-06-22T11:30:29;21.48;;;13.60;;
32216;SDS011;67098;51.140;4.088;2023-06-22T11:32:58;21.48;;;13.45;;
32216;SDS011;67098;51.140;4.088;2023-06-22T11:35:24;19.13;;;12.00;;
32216;SDS011;67098;51.140;4.088;2023-06-22T11:37:50;23.10;;;12.60;;
32216;SDS011;67098;51.140;4.088;2023-06-22T11:40:16;22.50;;;12.32;;
32216;SDS011;67098;51.140;4.088;2023-06-22T11:42:42;21.08;;;12.85;;
32216;SDS011;67098;51.140;4.088;2023-06-22T11:45:08;19.40;;;11.48;;
32216;SDS011;67098;51.140;4.088;2023-06-22T11:47:34;20.23;;;12.63;;
32216;SDS011;67098;51.140;4.088;2023-06-22T11:50:02;16.23;;;11.23;;
32216;SDS011;67098;51.140;4.088;2023-06-22T11:52:28;16.65;;;10.68;;
32216;SDS011;67098;51.140;4.088;2023-06-22T11:54:54;16.92;;;11.05;;
32216;SDS011;67098;51.140;4.088;2023-06-22T11:57:19;16.70;;;9.88;;
32216;SDS011;67098;51.140;4.088;2023-06-22T11:59:45;19.42;;;10.90;;
32216;SDS011;67098;51.140;4.088;2023-06-22T12:02:11;16.17;;;10.32;;
32216;SDS011;67098;51.140;4.088;2023-06-22T12:04:36;14.10;;;8.98;;
32216;SDS011;67098;51.140;4.088;2023-06-22T12:07:03;18.83;;;10.43;;
32216;SDS011;67098;51.140;4.088;2023-06-22T12:09:28;15.18;;;10.07;;
32216;SDS011;67098;51.140;4.088;2023-06-22T12:11:54;17.35;;;9.52;;
32216;SDS011;67098;51.140;4.088;2023-06-22T12:14:20;16.33;;;10.63;;
32216;SDS011;67098;51.140;4.088;2023-06-22T12:16:46;17.80;;;11.57;;
32216;SDS011;67098;51.140;4.088;2023-06-22T12:19:12;16.70;;;9.98;;
32216;SDS011;67098;51.140;4.088;2023-06-22T12:21:37;14.77;;;10.48;;
32216;SDS011;67098;51.140;4.088;2023-06-22T12:24:05;13.48;;;9.85;;
32216;SDS011;67098;51.140;4.088;2023-06-22T12:26:31;15.30;;;9.43;;
32216;SDS011;67098;51.140;4.088;2023-06-22T12:28:57;15.48;;;10.48;;
32216;SDS011;67098;51.140;4.088;2023-06-22T12:31:22;16.00;;;9.23;;
32216;SDS011;67098;51.140;4.088;2023-06-22T12:33:48;13.57;;;9.23;;
32216;SDS011;67098;51.140;4.088;2023-06-22T12:36:14;14.15;;;9.20;;
32216;SDS011;67098;51.140;4.088;2023-06-22T12:38:41;14.43;;;9.82;;
32216;SDS011;67098;51.140;4.088;2023-06-22T12:41:07;16.98;;;11.05;;
32216;SDS011;67098;51.140;4.088;2023-06-22T12:43:33;14.55;;;10.40;;
32216;SDS011;67098;51.140;4.088;2023-06-22T12:45:58;17.33;;;11.05;;
32216;SDS011;67098;51.140;4.088;2023-06-22T12:48:25;14.68;;;10.55;;
32216;SDS011;67098;51.140;4.088;2023-06-22T12:50:52;18.50;;;9.88;;
32216;SDS011;67098;51.140;4.088;2023-06-22T12:53:18;14.55;;;10.30;;
32216;SDS011;67098;51.140;4.088;2023-06-22T12:55:44;17.45;;;9.98;;
32216;SDS011;67098;51.140;4.088;2023-06-22T12:58:09;19.33;;;12.93;;
32216;SDS011;67098;51.140;4.088;2023-06-22T13:00:35;22.33;;;11.77;;
32216;SDS011;67098;51.140;4.088;2023-06-22T13:03:03;17.70;;;12.90;;
32216;SDS011;67098;51.140;4.088;2023-06-22T13:05:29;20.48;;;13.60;;
32216;SDS011;67098;51.140;4.088;2023-06-22T13:07:55;21.33;;;12.82;;
32216;SDS011;67098;51.140;4.088;2023-06-22T13:10:21;23.08;;;11.85;;
32216;SDS011;67098;51.140;4.088;2023-06-22T13:12:47;28.10;;;13.30;;
32216;SDS011;67098;51.140;4.088;2023-06-22T13:15:12;21.67;;;11.88;;
32216;SDS011;67098;51.140;4.088;2023-06-22T13:17:38;18.20;;;12.02;;
32216;SDS011;67098;51.140;4.088;2023-06-22T13:20:04;24.10;;;13.90;;
32216;SDS011;67098;51.140;4.088;2023-06-22T13:22:31;17.95;;;12.88;;
32216;SDS011;67098;51.140;4.088;2023-06-22T13:24:58;21.42;;;13.00;;
32216;SDS011;67098;51.140;4.088;2023-06-22T13:27:25;22.38;;;13.20;;
32216;SDS011;67098;51.140;4.088;2023-06-22T13:29:51;20.00;;;13.73;;
32216;SDS011;67098;51.140;4.088;2023-06-22T13:32:17;20.73;;;12.85;;
32216;SDS011;67098;51.140;4.088;2023-06-22T13:34:43;19.88;;;14.07;;
32216;SDS011;67098;51.140;4.088;2023-06-22T13:37:09;20.88;;;13.98;;
32216;SDS011;67098;51.140;4.088;2023-06-22T13:39:34;20.75;;;15.57;;
32216;SDS011;67098;51.140;4.088;2023-06-22T13:42:00;19.23;;;14.40;;
32216;SDS011;67098;51.140;4.088;2023-06-22T13:44:26;20.38;;;14.20;;
32216;SDS011;67098;51.140;4.088;2023-06-22T13:46:54;23.88;;;16.08;;
32216;SDS011;67098;51.140;4.088;2023-06-22T13:49:20;22.77;;;14.95;;
32216;SDS011;67098;51.140;4.088;2023-06-22T13:51:47;25.77;;;15.32;;
32216;SDS011;67098;51.140;4.088;2023-06-22T13:54:13;19.80;;;15.38;;
32216;SDS011;67098;51.140;4.088;2023-06-22T13:56:39;21.92;;;16.13;;
32216;SDS011;67098;51.140;4.088;2023-06-22T13:59:05;20.58;;;15.88;;
32216;SDS011;67098;51.140;4.088;2023-06-22T14:01:34;24.80;;;16.83;;
32216;SDS011;67098;51.140;4.088;2023-06-22T14:04:00;20.95;;;15.57;;
32216;SDS011;67098;51.140;4.088;2023-06-22T14:06:27;22.73;;;15.73;;
32216;SDS011;67098;51.140;4.088;2023-06-22T14:08:53;27.45;;;17.50;;
32216;SDS011;67098;51.140;4.088;2023-06-22T14:11:19;23.67;;;16.88;;
32216;SDS011;67098;51.140;4.088;2023-06-22T14:13:44;24.08;;;16.25;;
32216;SDS011;67098;51.140;4.088;2023-06-22T14:16:10;26.17;;;17.63;;
32216;SDS011;67098;51.140;4.088;2023-06-22T14:18:36;25.83;;;17.45;;
32216;SDS011;67098;51.140;4.088;2023-06-22T14:21:02;24.42;;;18.17;;
32216;SDS011;67098;51.140;4.088;2023-06-22T14:23:27;27.13;;;17.50;;
32216;SDS011;67098;51.140;4.088;2023-06-22T14:25:53;27.80;;;18.27;;
32216;SDS011;67098;51.140;4.088;2023-06-22T14:28:19;25.45;;;19.23;;
32216;SDS011;67098;51.140;4.088;2023-06-22T14:30:45;24.95;;;18.20;;
32216;SDS011;67098;51.140;4.088;2023-06-22T14:33:11;22.98;;;18.20;;
32216;SDS011;67098;51.140;4.088;2023-06-22T14:35:37;28.85;;;19.67;;
32216;SDS011;67098;51.140;4.088;2023-06-22T14:38:03;28.33;;;19.13;;
32216;SDS011;67098;51.140;4.088;2023-06-22T14:40:29;26.27;;;18.88;;